Terminal Aerodrome Forecast
Issued by NWS

Home | Current Version | Previous Version | Text Only | Print | Product List | Glossary On
Versions: 1 2 3 4 5 6 7 8 9 10 11 12 13 14 15 16 17
000
FTAK31 PAJN 200400 AAA
TAFAKT
TAF AMD
PAKT 200412Z 2004/2024 14009KT P6SM -SHRA SCT025 OVC035
     FM200600 14015KT 6SM -RA BR SCT015 OVC025
     FM200800 14022G32KT 4SM RA BR BKN012 OVC022 WS020/15045KT
     FM202000 14017G28KT 4SM RA BR BKN012 OVC022 WS020/19040KT
      AMD LTD TO CLD VIS AND WIND 2006/2015=

USA.gov is the U.S. government's official web portal to all federal, state and local government web resources and services.